sensor_id;sensor_type;location;lat;lon;timestamp;P1;durP1;ratioP1;P2;durP2;ratioP2
41921;SDS011;27609;51.002;5.354;2022-12-29T00:02:19;3.35;;;1.60;;
41921;SDS011;27609;51.002;5.354;2022-12-29T00:04:45;2.65;;;1.30;;
41921;SDS011;27609;51.002;5.354;2022-12-29T00:07:11;2.17;;;1.40;;
41921;SDS011;27609;51.002;5.354;2022-12-29T00:09:36;1.50;;;1.40;;
41921;SDS011;27609;51.002;5.354;2022-12-29T00:12:03;3.05;;;1.50;;
41921;SDS011;27609;51.002;5.354;2022-12-29T00:14:29;1.10;;;0.57;;
41921;SDS011;27609;51.002;5.354;2022-12-29T00:17:33;3.50;;;1.35;;
41921;SDS011;27609;51.002;5.354;2022-12-29T00:19:59;2.75;;;1.30;;
41921;SDS011;27609;51.002;5.354;2022-12-29T00:22:43;4.82;;;1.20;;
41921;SDS011;27609;51.002;5.354;2022-12-29T00:25:27;1.45;;;1.20;;
41921;SDS011;27609;51.002;5.354;2022-12-29T00:28:11;1.90;;;1.05;;
41921;SDS011;27609;51.002;5.354;2022-12-29T00:30:59;3.35;;;1.10;;
41921;SDS011;27609;51.002;5.354;2022-12-29T00:33:44;3.72;;;1.00;;
41921;SDS011;27609;51.002;5.354;2022-12-29T00:36:31;1.60;;;1.02;;
41921;SDS011;27609;51.002;5.354;2022-12-29T00:39:04;1.30;;;0.80;;
41921;SDS011;27609;51.002;5.354;2022-12-29T00:41:52;0.88;;;0.70;;
41921;SDS011;27609;51.002;5.354;2022-12-29T00:44:36;1.38;;;0.82;;
41921;SDS011;27609;51.002;5.354;2022-12-29T00:47:02;2.95;;;1.00;;
41921;SDS011;27609;51.002;5.354;2022-12-29T00:49:29;2.47;;;0.98;;
41921;SDS011;27609;51.002;5.354;2022-12-29T00:51:57;3.17;;;0.80;;
41921;SDS011;27609;51.002;5.354;2022-12-29T00:54:23;0.82;;;0.77;;
41921;SDS011;27609;51.002;5.354;2022-12-29T00:56:49;1.58;;;0.73;;
41921;SDS011;27609;51.002;5.354;2022-12-29T00:59:16;1.13;;;0.60;;
41921;SDS011;27609;51.002;5.354;2022-12-29T01:01:42;0.82;;;0.40;;
41921;SDS011;27609;51.002;5.354;2022-12-29T01:04:09;4.05;;;0.88;;
41921;SDS011;27609;51.002;5.354;2022-12-29T01:06:36;1.90;;;0.82;;
41921;SDS011;27609;51.002;5.354;2022-12-29T01:09:03;0.93;;;0.70;;
41921;SDS011;27609;51.002;5.354;2022-12-29T01:11:47;0.60;;;0.60;;
41921;SDS011;27609;51.002;5.354;2022-12-29T01:14:13;1.00;;;0.90;;
41921;SDS011;27609;51.002;5.354;2022-12-29T01:16:39;2.08;;;1.08;;
41921;SDS011;27609;51.002;5.354;2022-12-29T01:19:04;2.50;;;0.73;;
41921;SDS011;27609;51.002;5.354;2022-12-29T01:21:30;5.93;;;1.00;;
41921;SDS011;27609;51.002;5.354;2022-12-29T01:23:57;1.17;;;0.80;;
41921;SDS011;27609;51.002;5.354;2022-12-29T01:26:22;2.43;;;0.87;;
41921;SDS011;27609;51.002;5.354;2022-12-29T01:28:48;1.42;;;0.73;;
41921;SDS011;27609;51.002;5.354;2022-12-29T01:31:14;2.05;;;0.70;;
41921;SDS011;27609;51.002;5.354;2022-12-29T01:33:41;4.35;;;0.98;;
41921;SDS011;27609;51.002;5.354;2022-12-29T01:36:11;2.92;;;0.90;;
41921;SDS011;27609;51.002;5.354;2022-12-29T01:38:39;3.70;;;0.98;;
41921;SDS011;27609;51.002;5.354;2022-12-29T01:41:05;0.95;;;0.68;;
41921;SDS011;27609;51.002;5.354;2022-12-29T01:46:15;5.53;;;1.05;;
41921;SDS011;27609;51.002;5.354;2022-12-29T01:48:41;3.13;;;0.77;;
41921;SDS011;27609;51.002;5.354;2022-12-29T01:51:08;4.30;;;1.15;;
41921;SDS011;27609;51.002;5.354;2022-12-29T01:53:34;2.60;;;0.95;;
41921;SDS011;27609;51.002;5.354;2022-12-29T01:56:02;2.63;;;0.73;;
41921;SDS011;27609;51.002;5.354;2022-12-29T01:58:32;3.22;;;1.00;;
41921;SDS011;27609;51.002;5.354;2022-12-29T02:01:02;2.30;;;1.50;;
41921;SDS011;27609;51.002;5.354;2022-12-29T02:03:29;2.88;;;1.38;;
41921;SDS011;27609;51.002;5.354;2022-12-29T02:06:02;4.75;;;1.20;;
41921;SDS011;27609;51.002;5.354;2022-12-29T02:08:41;3.92;;;0.95;;
41921;SDS011;27609;51.002;5.354;2022-12-29T02:11:11;2.75;;;1.02;;
41921;SDS011;27609;51.002;5.354;2022-12-29T02:13:37;7.70;;;1.00;;
41921;SDS011;27609;51.002;5.354;2022-12-29T02:19:03;8.23;;;1.33;;
41921;SDS011;27609;51.002;5.354;2022-12-29T02:36:01;1.63;;;0.60;;
41921;SDS011;27609;51.002;5.354;2022-12-29T02:41:56;4.47;;;1.23;;
41921;SDS011;27609;51.002;5.354;2022-12-29T02:44:34;0.43;;;0.43;;
41921;SDS011;27609;51.002;5.354;2022-12-29T02:49:51;1.73;;;0.80;;
41921;SDS011;27609;51.002;5.354;2022-12-29T02:52:42;1.85;;;1.05;;
41921;SDS011;27609;51.002;5.354;2022-12-29T02:55:22;1.42;;;0.70;;
41921;SDS011;27609;51.002;5.354;2022-12-29T02:57:48;1.73;;;0.80;;
41921;SDS011;27609;51.002;5.354;2022-12-29T03:00:14;2.47;;;0.70;;
41921;SDS011;27609;51.002;5.354;2022-12-29T03:08:38;2.45;;;0.63;;
41921;SDS011;27609;51.002;5.354;2022-12-29T03:11:12;4.72;;;1.33;;
41921;SDS011;27609;51.002;5.354;2022-12-29T03:14:08;1.45;;;0.68;;
41921;SDS011;27609;51.002;5.354;2022-12-29T03:17:00;0.88;;;0.68;;
41921;SDS011;27609;51.002;5.354;2022-12-29T03:19:36;3.65;;;0.90;;
41921;SDS011;27609;51.002;5.354;2022-12-29T03:22:12;2.40;;;0.98;;
41921;SDS011;27609;51.002;5.354;2022-12-29T03:24:59;0.75;;;0.75;;
41921;SDS011;27609;51.002;5.354;2022-12-29T03:27:31;2.65;;;0.80;;
41921;SDS011;27609;51.002;5.354;2022-12-29T03:30:02;0.57;;;0.57;;
41921;SDS011;27609;51.002;5.354;2022-12-29T03:32:34;2.67;;;0.77;;
41921;SDS011;27609;51.002;5.354;2022-12-29T03:35:04;1.40;;;0.60;;
41921;SDS011;27609;51.002;5.354;2022-12-29T03:37:37;1.30;;;0.73;;
41921;SDS011;27609;51.002;5.354;2022-12-29T03:40:06;1.25;;;0.90;;
41921;SDS011;27609;51.002;5.354;2022-12-29T03:42:33;1.38;;;0.93;;
41921;SDS011;27609;51.002;5.354;2022-12-29T03:45:01;1.15;;;0.52;;
41921;SDS011;27609;51.002;5.354;2022-12-29T03:47:30;1.65;;;0.95;;
41921;SDS011;27609;51.002;5.354;2022-12-29T03:49:55;2.38;;;0.80;;
41921;SDS011;27609;51.002;5.354;2022-12-29T03:52:21;3.97;;;1.60;;
41921;SDS011;27609;51.002;5.354;2022-12-29T03:54:47;4.68;;;0.80;;
41921;SDS011;27609;51.002;5.354;2022-12-29T03:57:12;2.30;;;1.20;;
41921;SDS011;27609;51.002;5.354;2022-12-29T03:59:38;1.90;;;0.70;;
41921;SDS011;27609;51.002;5.354;2022-12-29T04:02:03;3.42;;;1.20;;
41921;SDS011;27609;51.002;5.354;2022-12-29T04:04:29;4.10;;;1.17;;
41921;SDS011;27609;51.002;5.354;2022-12-29T04:06:55;2.92;;;0.90;;
41921;SDS011;27609;51.002;5.354;2022-12-29T04:09:20;3.42;;;1.08;;
41921;SDS011;27609;51.002;5.354;2022-12-29T04:11:46;3.70;;;1.30;;
41921;SDS011;27609;51.002;5.354;2022-12-29T04:14:12;6.68;;;1.30;;
41921;SDS011;27609;51.002;5.354;2022-12-29T04:16:37;2.38;;;0.98;;
41921;SDS011;27609;51.002;5.354;2022-12-29T04:19:04;2.17;;;0.80;;
41921;SDS011;27609;51.002;5.354;2022-12-29T04:21:30;4.50;;;1.05;;
41921;SDS011;27609;51.002;5.354;2022-12-29T04:23:56;2.83;;;1.40;;
41921;SDS011;27609;51.002;5.354;2022-12-29T04:26:22;3.35;;;0.90;;
41921;SDS011;27609;51.002;5.354;2022-12-29T04:28:48;3.72;;;0.88;;
41921;SDS011;27609;51.002;5.354;2022-12-29T04:31:13;2.42;;;0.60;;
41921;SDS011;27609;51.002;5.354;2022-12-29T04:33:39;3.20;;;1.20;;
41921;SDS011;27609;51.002;5.354;2022-12-29T04:36:05;3.45;;;1.00;;
41921;SDS011;27609;51.002;5.354;2022-12-29T04:38:31;2.38;;;0.75;;
41921;SDS011;27609;51.002;5.354;2022-12-29T04:40:58;3.42;;;1.17;;
41921;SDS011;27609;51.002;5.354;2022-12-29T04:43:32;2.22;;;0.90;;
41921;SDS011;27609;51.002;5.354;2022-12-29T04:45:58;5.13;;;0.80;;
41921;SDS011;27609;51.002;5.354;2022-12-29T04:48:23;1.02;;;0.65;;
41921;SDS011;27609;51.002;5.354;2022-12-29T04:50:49;4.10;;;2.17;;
41921;SDS011;27609;51.002;5.354;2022-12-29T04:53:17;8.38;;;2.35;;
41921;SDS011;27609;51.002;5.354;2022-12-29T04:55:43;3.33;;;2.42;;
41921;SDS011;27609;51.002;5.354;2022-12-29T04:58:09;5.88;;;3.95;;
41921;SDS011;27609;51.002;5.354;2022-12-29T05:00:35;11.02;;;3.75;;
41921;SDS011;27609;51.002;5.354;2022-12-29T05:03:00;9.90;;;4.72;;
41921;SDS011;27609;51.002;5.354;2022-12-29T05:05:26;8.95;;;4.18;;
41921;SDS011;27609;51.002;5.354;2022-12-29T05:07:51;6.47;;;3.03;;
41921;SDS011;27609;51.002;5.354;2022-12-29T05:10:18;4.88;;;1.58;;
41921;SDS011;27609;51.002;5.354;2022-12-29T05:12:44;11.20;;;5.43;;
41921;SDS011;27609;51.002;5.354;2022-12-29T05:15:10;5.20;;;2.83;;
41921;SDS011;27609;51.002;5.354;2022-12-29T05:17:36;2.63;;;1.40;;
41921;SDS011;27609;51.002;5.354;2022-12-29T05:22:31;4.90;;;1.40;;
41921;SDS011;27609;51.002;5.354;2022-12-29T05:24:57;4.50;;;1.20;;
41921;SDS011;27609;51.002;5.354;2022-12-29T05:27:22;4.25;;;1.60;;
41921;SDS011;27609;51.002;5.354;2022-12-29T05:29:48;7.07;;;1.65;;
41921;SDS011;27609;51.002;5.354;2022-12-29T05:32:14;8.43;;;2.17;;
41921;SDS011;27609;51.002;5.354;2022-12-29T05:34:39;3.00;;;0.73;;
41921;SDS011;27609;51.002;5.354;2022-12-29T05:37:05;4.55;;;1.17;;
41921;SDS011;27609;51.002;5.354;2022-12-29T05:39:33;8.35;;;1.55;;
41921;SDS011;27609;51.002;5.354;2022-12-29T05:41:58;6.38;;;1.00;;
41921;SDS011;27609;51.002;5.354;2022-12-29T05:44:24;3.53;;;0.95;;
41921;SDS011;27609;51.002;5.354;2022-12-29T05:46:50;3.85;;;1.10;;
41921;SDS011;27609;51.002;5.354;2022-12-29T05:49:16;6.72;;;1.00;;
41921;SDS011;27609;51.002;5.354;2022-12-29T05:51:41;5.30;;;1.50;;
41921;SDS011;27609;51.002;5.354;2022-12-29T05:54:07;5.45;;;1.05;;
41921;SDS011;27609;51.002;5.354;2022-12-29T05:56:33;7.25;;;1.27;;
41921;SDS011;27609;51.002;5.354;2022-12-29T05:58:58;6.25;;;1.48;;
41921;SDS011;27609;51.002;5.354;2022-12-29T06:01:24;4.40;;;1.15;;
41921;SDS011;27609;51.002;5.354;2022-12-29T06:03:50;5.55;;;1.50;;
41921;SDS011;27609;51.002;5.354;2022-12-29T06:06:15;4.75;;;1.40;;
41921;SDS011;27609;51.002;5.354;2022-12-29T06:08:41;4.40;;;0.95;;
41921;SDS011;27609;51.002;5.354;2022-12-29T06:11:07;5.38;;;1.10;;
41921;SDS011;27609;51.002;5.354;2022-12-29T06:13:35;5.53;;;1.60;;
41921;SDS011;27609;51.002;5.354;2022-12-29T06:16:01;8.35;;;1.77;;
41921;SDS011;27609;51.002;5.354;2022-12-29T06:18:27;4.70;;;1.27;;
41921;SDS011;27609;51.002;5.354;2022-12-29T06:20:53;7.43;;;1.17;;
41921;SDS011;27609;51.002;5.354;2022-12-29T06:23:19;2.88;;;0.95;;
41921;SDS011;27609;51.002;5.354;2022-12-29T06:25:46;5.72;;;1.17;;
41921;SDS011;27609;51.002;5.354;2022-12-29T06:28:13;7.15;;;1.67;;
41921;SDS011;27609;51.002;5.354;2022-12-29T06:30:39;4.70;;;1.35;;
41921;SDS011;27609;51.002;5.354;2022-12-29T06:33:04;6.47;;;1.02;;
41921;SDS011;27609;51.002;5.354;2022-12-29T06:35:31;4.53;;;1.40;;
41921;SDS011;27609;51.002;5.354;2022-12-29T06:37:57;9.73;;;1.20;;
41921;SDS011;27609;51.002;5.354;2022-12-29T06:40:22;10.98;;;1.20;;
41921;SDS011;27609;51.002;5.354;2022-12-29T06:42:48;9.85;;;1.38;;
41921;SDS011;27609;51.002;5.354;2022-12-29T06:45:14;7.53;;;1.88;;
41921;SDS011;27609;51.002;5.354;2022-12-29T06:47:39;6.95;;;1.83;;
41921;SDS011;27609;51.002;5.354;2022-12-29T06:50:05;9.57;;;2.08;;
41921;SDS011;27609;51.002;5.354;2022-12-29T06:52:31;8.60;;;1.40;;
41921;SDS011;27609;51.002;5.354;2022-12-29T06:54:56;7.00;;;1.20;;
41921;SDS011;27609;51.002;5.354;2022-12-29T06:57:22;11.27;;;1.40;;
41921;SDS011;27609;51.002;5.354;2022-12-29T06:59:48;5.68;;;1.00;;
41921;SDS011;27609;51.002;5.354;2022-12-29T07:02:13;4.93;;;1.52;;
41921;SDS011;27609;51.002;5.354;2022-12-29T07:04:41;7.05;;;1.63;;
41921;SDS011;27609;51.002;5.354;2022-12-29T07:07:07;10.05;;;1.83;;
41921;SDS011;27609;51.002;5.354;2022-12-29T07:09:32;5.47;;;1.50;;
41921;SDS011;27609;51.002;5.354;2022-12-29T07:11:58;6.97;;;1.70;;
41921;SDS011;27609;51.002;5.354;2022-12-29T07:14:24;8.98;;;1.58;;
41921;SDS011;27609;51.002;5.354;2022-12-29T07:16:49;6.78;;;1.35;;
41921;SDS011;27609;51.002;5.354;2022-12-29T07:19:15;9.25;;;1.90;;
41921;SDS011;27609;51.002;5.354;2022-12-29T07:21:41;8.45;;;1.67;;
41921;SDS011;27609;51.002;5.354;2022-12-29T07:24:07;4.70;;;1.63;;
41921;SDS011;27609;51.002;5.354;2022-12-29T07:26:33;14.82;;;2.20;;
41921;SDS011;27609;51.002;5.354;2022-12-29T07:29:01;16.10;;;2.63;;
41921;SDS011;27609;51.002;5.354;2022-12-29T07:31:28;9.55;;;1.40;;
41921;SDS011;27609;51.002;5.354;2022-12-29T07:33:54;5.82;;;1.05;;
41921;SDS011;27609;51.002;5.354;2022-12-29T07:36:20;6.03;;;1.65;;
41921;SDS011;27609;51.002;5.354;2022-12-29T07:38:45;11.07;;;2.33;;
41921;SDS011;27609;51.002;5.354;2022-12-29T07:41:11;6.13;;;1.30;;
41921;SDS011;27609;51.002;5.354;2022-12-29T07:43:37;9.48;;;1.70;;
41921;SDS011;27609;51.002;5.354;2022-12-29T07:46:03;8.48;;;1.42;;
41921;SDS011;27609;51.002;5.354;2022-12-29T07:48:28;11.50;;;1.42;;
41921;SDS011;27609;51.002;5.354;2022-12-29T07:50:54;11.68;;;2.10;;
41921;SDS011;27609;51.002;5.354;2022-12-29T07:53:20;6.40;;;1.80;;
41921;SDS011;27609;51.002;5.354;2022-12-29T07:55:45;11.00;;;2.58;;
41921;SDS011;27609;51.002;5.354;2022-12-29T07:58:11;9.43;;;1.60;;
41921;SDS011;27609;51.002;5.354;2022-12-29T08:00:37;5.40;;;1.48;;
41921;SDS011;27609;51.002;5.354;2022-12-29T08:03:03;6.03;;;1.45;;
41921;SDS011;27609;51.002;5.354;2022-12-29T08:05:32;10.35;;;1.80;;
41921;SDS011;27609;51.002;5.354;2022-12-29T08:07:59;6.28;;;1.90;;
41921;SDS011;27609;51.002;5.354;2022-12-29T08:10:25;8.18;;;1.73;;
41921;SDS011;27609;51.002;5.354;2022-12-29T08:12:51;14.27;;;1.85;;
41921;SDS011;27609;51.002;5.354;2022-12-29T08:15:16;8.57;;;1.85;;
41921;SDS011;27609;51.002;5.354;2022-12-29T08:17:42;14.68;;;2.30;;
41921;SDS011;27609;51.002;5.354;2022-12-29T08:20:08;3.90;;;1.00;;
41921;SDS011;27609;51.002;5.354;2022-12-29T08:22:34;9.00;;;1.77;;
41921;SDS011;27609;51.002;5.354;2022-12-29T08:25:00;5.88;;;1.35;;
41921;SDS011;27609;51.002;5.354;2022-12-29T08:27:26;10.57;;;1.92;;
41921;SDS011;27609;51.002;5.354;2022-12-29T08:29:51;5.10;;;1.25;;
41921;SDS011;27609;51.002;5.354;2022-12-29T08:32:17;11.90;;;2.08;;
41921;SDS011;27609;51.002;5.354;2022-12-29T08:34:43;12.25;;;1.60;;
41921;SDS011;27609;51.002;5.354;2022-12-29T08:37:09;4.88;;;1.13;;
41921;SDS011;27609;51.002;5.354;2022-12-29T08:39:34;8.32;;;1.52;;
41921;SDS011;27609;51.002;5.354;2022-12-29T08:42:00;9.35;;;1.55;;
41921;SDS011;27609;51.002;5.354;2022-12-29T08:44:26;10.13;;;1.90;;
41921;SDS011;27609;51.002;5.354;2022-12-29T08:46:51;8.82;;;1.88;;
41921;SDS011;27609;51.002;5.354;2022-12-29T08:49:17;6.88;;;1.10;;
41921;SDS011;27609;51.002;5.354;2022-12-29T08:51:43;8.68;;;1.38;;
41921;SDS011;27609;51.002;5.354;2022-12-29T08:54:08;9.40;;;1.48;;
41921;SDS011;27609;51.002;5.354;2022-12-29T08:56:34;12.27;;;2.13;;
41921;SDS011;27609;51.002;5.354;2022-12-29T08:59:00;6.30;;;1.50;;
41921;SDS011;27609;51.002;5.354;2022-12-29T09:01:26;10.70;;;1.30;;
41921;SDS011;27609;51.002;5.354;2022-12-29T09:03:52;7.07;;;1.23;;
41921;SDS011;27609;51.002;5.354;2022-12-29T09:06:19;7.32;;;1.48;;
41921;SDS011;27609;51.002;5.354;2022-12-29T09:08:44;4.78;;;1.42;;
41921;SDS011;27609;51.002;5.354;2022-12-29T09:11:12;15.27;;;1.70;;
41921;SDS011;27609;51.002;5.354;2022-12-29T09:13:43;7.60;;;1.38;;
41921;SDS011;27609;51.002;5.354;2022-12-29T09:16:08;5.63;;;0.98;;
41921;SDS011;27609;51.002;5.354;2022-12-29T09:18:35;7.65;;;1.70;;
41921;SDS011;27609;51.002;5.354;2022-12-29T09:21:02;9.77;;;1.80;;
41921;SDS011;27609;51.002;5.354;2022-12-29T09:23:29;3.97;;;1.27;;
41921;SDS011;27609;51.002;5.354;2022-12-29T09:25:55;5.38;;;1.80;;
41921;SDS011;27609;51.002;5.354;2022-12-29T09:28:21;10.40;;;1.55;;
41921;SDS011;27609;51.002;5.354;2022-12-29T09:30:47;7.03;;;2.28;;
41921;SDS011;27609;51.002;5.354;2022-12-29T09:33:13;7.75;;;1.77;;
41921;SDS011;27609;51.002;5.354;2022-12-29T09:35:43;9.85;;;1.90;;
41921;SDS011;27609;51.002;5.354;2022-12-29T09:38:10;4.95;;;1.48;;
41921;SDS011;27609;51.002;5.354;2022-12-29T09:40:37;5.40;;;1.40;;
41921;SDS011;27609;51.002;5.354;2022-12-29T09:43:25;7.55;;;1.70;;
41921;SDS011;27609;51.002;5.354;2022-12-29T09:46:04;9.10;;;1.42;;
41921;SDS011;27609;51.002;5.354;2022-12-29T09:49:36;8.05;;;1.70;;
41921;SDS011;27609;51.002;5.354;2022-12-29T09:51:40;9.70;;;1.85;;
41921;SDS011;27609;51.002;5.354;2022-12-29T09:56:59;5.35;;;0.98;;
41921;SDS011;27609;51.002;5.354;2022-12-29T10:00:36;10.38;;;2.42;;
41921;SDS011;27609;51.002;5.354;2022-12-29T10:02:31;12.00;;;2.00;;
41921;SDS011;27609;51.002;5.354;2022-12-29T10:19:57;8.95;;;2.50;;
41921;SDS011;27609;51.002;5.354;2022-12-29T10:25:22;9.80;;;2.28;;
41921;SDS011;27609;51.002;5.354;2022-12-29T10:27:50;16.70;;;1.88;;
41921;SDS011;27609;51.002;5.354;2022-12-29T10:30:20;11.68;;;1.80;;
41921;SDS011;27609;51.002;5.354;2022-12-29T10:32:56;13.75;;;1.92;;
41921;SDS011;27609;51.002;5.354;2022-12-29T10:35:25;9.75;;;1.77;;
41921;SDS011;27609;51.002;5.354;2022-12-29T10:38:03;8.52;;;1.55;;
41921;SDS011;27609;51.002;5.354;2022-12-29T10:43:49;6.63;;;1.73;;
41921;SDS011;27609;51.002;5.354;2022-12-29T10:46:21;10.10;;;1.48;;
41921;SDS011;27609;51.002;5.354;2022-12-29T10:48:50;11.75;;;2.20;;
41921;SDS011;27609;51.002;5.354;2022-12-29T10:51:18;13.00;;;2.08;;
41921;SDS011;27609;51.002;5.354;2022-12-29T10:59:23;12.10;;;2.03;;
41921;SDS011;27609;51.002;5.354;2022-12-29T11:07:29;3.30;;;1.27;;
41921;SDS011;27609;51.002;5.354;2022-12-29T11:09:55;6.63;;;1.60;;
41921;SDS011;27609;51.002;5.354;2022-12-29T11:12:59;9.38;;;1.92;;
41921;SDS011;27609;51.002;5.354;2022-12-29T11:15:26;9.15;;;1.63;;
41921;SDS011;27609;51.002;5.354;2022-12-29T11:17:53;12.93;;;2.35;;
41921;SDS011;27609;51.002;5.354;2022-12-29T11:20:36;9.77;;;2.03;;
41921;SDS011;27609;51.002;5.354;2022-12-29T11:25:30;7.28;;;1.88;;
41921;SDS011;27609;51.002;5.354;2022-12-29T11:27:57;12.75;;;2.25;;
41921;SDS011;27609;51.002;5.354;2022-12-29T11:30:30;10.68;;;3.03;;
41921;SDS011;27609;51.002;5.354;2022-12-29T11:32:57;7.35;;;2.17;;
41921;SDS011;27609;51.002;5.354;2022-12-29T11:35:40;11.18;;;2.03;;
41921;SDS011;27609;51.002;5.354;2022-12-29T11:38:20;7.85;;;1.90;;
41921;SDS011;27609;51.002;5.354;2022-12-29T11:40:49;7.80;;;2.05;;
41921;SDS011;27609;51.002;5.354;2022-12-29T11:43:21;12.40;;;2.10;;
41921;SDS011;27609;51.002;5.354;2022-12-29T11:45:55;13.90;;;2.35;;
41921;SDS011;27609;51.002;5.354;2022-12-29T11:48:21;12.73;;;2.28;;
41921;SDS011;27609;51.002;5.354;2022-12-29T11:50:55;10.63;;;1.85;;
41921;SDS011;27609;51.002;5.354;2022-12-29T11:53:25;13.13;;;2.05;;
41921;SDS011;27609;51.002;5.354;2022-12-29T11:56:15;13.07;;;2.38;;
41921;SDS011;27609;51.002;5.354;2022-12-29T11:58:44;8.63;;;1.70;;
41921;SDS011;27609;51.002;5.354;2022-12-29T12:03:43;10.55;;;3.00;;
41921;SDS011;27609;51.002;5.354;2022-12-29T12:06:14;6.32;;;2.08;;
41921;SDS011;27609;51.002;5.354;2022-12-29T12:08:45;7.43;;;1.92;;
41921;SDS011;27609;51.002;5.354;2022-12-29T12:11:26;10.32;;;2.08;;
41921;SDS011;27609;51.002;5.354;2022-12-29T12:16:46;12.35;;;1.58;;
41921;SDS011;27609;51.002;5.354;2022-12-29T12:25:18;11.38;;;1.85;;
41921;SDS011;27609;51.002;5.354;2022-12-29T12:27:53;5.07;;;0.82;;
41921;SDS011;27609;51.002;5.354;2022-12-29T12:30:27;12.93;;;2.35;;
41921;SDS011;27609;51.002;5.354;2022-12-29T12:44:29;11.02;;;1.60;;
41921;SDS011;27609;51.002;5.354;2022-12-29T12:50:00;11.93;;;2.15;;
41921;SDS011;27609;51.002;5.354;2022-12-29T12:55:47;11.10;;;2.00;;
41921;SDS011;27609;51.002;5.354;2022-12-29T13:01:24;8.95;;;1.63;;
41921;SDS011;27609;51.002;5.354;2022-12-29T13:07:25;8.35;;;1.73;;
41921;SDS011;27609;51.002;5.354;2022-12-29T13:09:59;5.30;;;1.60;;
41921;SDS011;27609;51.002;5.354;2022-12-29T13:12:42;7.40;;;1.30;;
41921;SDS011;27609;51.002;5.354;2022-12-29T13:15:40;8.15;;;1.55;;
41921;SDS011;27609;51.002;5.354;2022-12-29T13:23:57;6.10;;;1.67;;
41921;SDS011;27609;51.002;5.354;2022-12-29T13:26:35;9.32;;;1.48;;
41921;SDS011;27609;51.002;5.354;2022-12-29T13:32:18;7.55;;;1.38;;
41921;SDS011;27609;51.002;5.354;2022-12-29T13:37:53;8.48;;;1.55;;
41921;SDS011;27609;51.002;5.354;2022-12-29T13:40:25;5.50;;;1.40;;
41921;SDS011;27609;51.002;5.354;2022-12-29T13:42:53;8.55;;;1.55;;
41921;SDS011;27609;51.002;5.354;2022-12-29T13:45:21;9.30;;;1.58;;
41921;SDS011;27609;51.002;5.354;2022-12-29T13:50:27;8.07;;;1.85;;
41921;SDS011;27609;51.002;5.354;2022-12-29T13:56:00;9.32;;;1.98;;
41921;SDS011;27609;51.002;5.354;2022-12-29T13:58:41;7.60;;;1.65;;
41921;SDS011;27609;51.002;5.354;2022-12-29T14:01:23;11.93;;;1.80;;
41921;SDS011;27609;51.002;5.354;2022-12-29T14:03:58;7.82;;;1.85;;
41921;SDS011;27609;51.002;5.354;2022-12-29T14:06:31;8.07;;;2.17;;
41921;SDS011;27609;51.002;5.354;2022-12-29T14:09:02;8.05;;;1.45;;
41921;SDS011;27609;51.002;5.354;2022-12-29T14:11:34;14.57;;;2.60;;
41921;SDS011;27609;51.002;5.354;2022-12-29T14:14:18;13.82;;;1.83;;
41921;SDS011;27609;51.002;5.354;2022-12-29T14:16:50;6.32;;;1.45;;
41921;SDS011;27609;51.002;5.354;2022-12-29T14:21:51;9.80;;;1.42;;
41921;SDS011;27609;51.002;5.354;2022-12-29T14:25:02;5.28;;;1.88;;
41921;SDS011;27609;51.002;5.354;2022-12-29T14:32:34;8.52;;;1.70;;
41921;SDS011;27609;51.002;5.354;2022-12-29T14:34:49;14.05;;;2.38;;
41921;SDS011;27609;51.002;5.354;2022-12-29T14:37:26;17.58;;;2.28;;
41921;SDS011;27609;51.002;5.354;2022-12-29T14:42:44;8.40;;;1.70;;
41921;SDS011;27609;51.002;5.354;2022-12-29T14:47:41;10.48;;;2.10;;
41921;SDS011;27609;51.002;5.354;2022-12-29T14:50:15;11.80;;;1.75;;
41921;SDS011;27609;51.002;5.354;2022-12-29T14:52:48;11.82;;;2.17;;
41921;SDS011;27609;51.002;5.354;2022-12-29T14:55:36;11.30;;;2.63;;
41921;SDS011;27609;51.002;5.354;2022-12-29T14:58:04;11.93;;;4.68;;
41921;SDS011;27609;51.002;5.354;2022-12-29T15:00:35;12.60;;;3.05;;
41921;SDS011;27609;51.002;5.354;2022-12-29T15:03:05;18.55;;;6.32;;
41921;SDS011;27609;51.002;5.354;2022-12-29T15:08:16;17.77;;;5.93;;
41921;SDS011;27609;51.002;5.354;2022-12-29T15:13:37;19.60;;;7.40;;
41921;SDS011;27609;51.002;5.354;2022-12-29T15:16:05;22.35;;;4.15;;
41921;SDS011;27609;51.002;5.354;2022-12-29T15:18:46;12.02;;;2.58;;
41921;SDS011;27609;51.002;5.354;2022-12-29T15:21:12;12.02;;;2.78;;
41921;SDS011;27609;51.002;5.354;2022-12-29T15:23:39;12.30;;;3.17;;
41921;SDS011;27609;51.002;5.354;2022-12-29T15:26:09;15.83;;;2.30;;
41921;SDS011;27609;51.002;5.354;2022-12-29T15:28:37;11.20;;;3.33;;
41921;SDS011;27609;51.002;5.354;2022-12-29T15:31:10;8.75;;;1.92;;
41921;SDS011;27609;51.002;5.354;2022-12-29T15:33:41;16.85;;;3.17;;
41921;SDS011;27609;51.002;5.354;2022-12-29T15:36:36;13.02;;;2.47;;
41921;SDS011;27609;51.002;5.354;2022-12-29T15:39:17;14.20;;;2.65;;
41921;SDS011;27609;51.002;5.354;2022-12-29T15:44:58;6.80;;;1.98;;
41921;SDS011;27609;51.002;5.354;2022-12-29T15:47:24;9.32;;;1.67;;
41921;SDS011;27609;51.002;5.354;2022-12-29T15:49:53;11.63;;;2.55;;
41921;SDS011;27609;51.002;5.354;2022-12-29T15:52:29;10.73;;;2.10;;
41921;SDS011;27609;51.002;5.354;2022-12-29T15:54:57;15.63;;;2.13;;
41921;SDS011;27609;51.002;5.354;2022-12-29T15:59:51;17.17;;;2.65;;
41921;SDS011;27609;51.002;5.354;2022-12-29T16:02:18;10.07;;;2.65;;
41921;SDS011;27609;51.002;5.354;2022-12-29T16:04:45;10.23;;;2.30;;
41921;SDS011;27609;51.002;5.354;2022-12-29T16:07:24;8.63;;;2.22;;
41921;SDS011;27609;51.002;5.354;2022-12-29T16:10:01;12.10;;;3.17;;
41921;SDS011;27609;51.002;5.354;2022-12-29T16:12:34;14.02;;;2.60;;
41921;SDS011;27609;51.002;5.354;2022-12-29T16:15:03;15.00;;;2.42;;
41921;SDS011;27609;51.002;5.354;2022-12-29T16:17:31;7.28;;;1.85;;
41921;SDS011;27609;51.002;5.354;2022-12-29T16:20:02;6.13;;;1.52;;
41921;SDS011;27609;51.002;5.354;2022-12-29T16:22:39;5.75;;;1.65;;
41921;SDS011;27609;51.002;5.354;2022-12-29T16:28:00;5.78;;;2.03;;
41921;SDS011;27609;51.002;5.354;2022-12-29T16:30:30;7.13;;;1.50;;
41921;SDS011;27609;51.002;5.354;2022-12-29T16:32:58;8.55;;;3.97;;
41921;SDS011;27609;51.002;5.354;2022-12-29T16:35:26;6.72;;;2.05;;
41921;SDS011;27609;51.002;5.354;2022-12-29T16:41:00;6.78;;;3.00;;
41921;SDS011;27609;51.002;5.354;2022-12-29T16:43:28;6.47;;;2.85;;
41921;SDS011;27609;51.002;5.354;2022-12-29T16:46:11;7.85;;;3.25;;
41921;SDS011;27609;51.002;5.354;2022-12-29T16:48:49;8.07;;;3.15;;
41921;SDS011;27609;51.002;5.354;2022-12-29T16:51:23;14.35;;;2.78;;
41921;SDS011;27609;51.002;5.354;2022-12-29T16:54:00;8.40;;;2.90;;
41921;SDS011;27609;51.002;5.354;2022-12-29T16:56:32;12.88;;;3.75;;
41921;SDS011;27609;51.002;5.354;2022-12-29T16:59:04;17.15;;;3.83;;
41921;SDS011;27609;51.002;5.354;2022-12-29T17:01:42;8.20;;;2.60;;
41921;SDS011;27609;51.002;5.354;2022-12-29T17:04:08;11.35;;;2.78;;
41921;SDS011;27609;51.002;5.354;2022-12-29T17:06:36;13.55;;;3.50;;
41921;SDS011;27609;51.002;5.354;2022-12-29T17:09:02;14.07;;;3.53;;
41921;SDS011;27609;51.002;5.354;2022-12-29T17:11:40;17.95;;;3.42;;
41921;SDS011;27609;51.002;5.354;2022-12-29T17:17:05;17.40;;;6.43;;
41921;SDS011;27609;51.002;5.354;2022-12-29T17:19:37;15.13;;;3.65;;
41921;SDS011;27609;51.002;5.354;2022-12-29T17:22:08;16.75;;;3.75;;
41921;SDS011;27609;51.002;5.354;2022-12-29T17:24:37;24.73;;;5.80;;
41921;SDS011;27609;51.002;5.354;2022-12-29T17:27:03;31.05;;;8.38;;
41921;SDS011;27609;51.002;5.354;2022-12-29T17:29:32;12.88;;;2.60;;
41921;SDS011;27609;51.002;5.354;2022-12-29T17:32:02;13.80;;;2.63;;
41921;SDS011;27609;51.002;5.354;2022-12-29T17:34:30;16.25;;;3.38;;
41921;SDS011;27609;51.002;5.354;2022-12-29T17:36:57;14.32;;;3.65;;
41921;SDS011;27609;51.002;5.354;2022-12-29T17:39:23;12.38;;;3.15;;